sensor_id;sensor_type;location;lat;lon;timestamp;temperature;humidity
38798;SHT11;24546;52.240;16.826;2022-12-18T00:00:05;-2.00;99.90
38798;SHT11;24546;52.240;16.826;2022-12-18T00:05:14;-1.90;99.90
38798;SHT11;24546;52.240;16.826;2022-12-18T00:10:15;-1.90;99.90
38798;SHT11;24546;52.240;16.826;2022-12-18T00:15:17;-1.80;99.90
38798;SHT11;24546;52.240;16.826;2022-12-18T00:20:18;-1.80;99.90
38798;SHT11;24546;52.240;16.826;2022-12-18T00:25:25;-2.20;99.90
38798;SHT11;24546;52.240;16.826;2022-12-18T00:30:26;-2.20;99.90
38798;SHT11;24546;52.240;16.826;2022-12-18T00:35:27;-2.20;99.90
38798;SHT11;24546;52.240;16.826;2022-12-18T00:40:28;-2.40;99.90
38798;SHT11;24546;52.240;16.826;2022-12-18T00:45:30;-2.30;99.90
38798;SHT11;24546;52.240;16.826;2022-12-18T00:50:31;-2.50;99.90
38798;SHT11;24546;52.240;16.826;2022-12-18T00:55:34;-2.40;99.90
38798;SHT11;24546;52.240;16.826;2022-12-18T01:00:35;-2.50;99.90
38798;SHT11;24546;52.240;16.826;2022-12-18T01:05:39;-2.60;99.90
38798;SHT11;24546;52.240;16.826;2022-12-18T01:10:41;-2.60;99.90
38798;SHT11;24546;52.240;16.826;2022-12-18T01:15:49;-2.60;99.90
38798;SHT11;24546;52.240;16.826;2022-12-18T01:20:50;-2.60;99.90
38798;SHT11;24546;52.240;16.826;2022-12-18T01:25:51;-2.70;99.90
38798;SHT11;24546;52.240;16.826;2022-12-18T01:30:52;-2.90;99.90
38798;SHT11;24546;52.240;16.826;2022-12-18T01:35:55;-2.90;99.90
38798;SHT11;24546;52.240;16.826;2022-12-18T01:41:00;-3.10;99.90
38798;SHT11;24546;52.240;16.826;2022-12-18T01:46:02;-3.10;99.90
38798;SHT11;24546;52.240;16.826;2022-12-18T01:51:06;-3.10;99.90
38798;SHT11;24546;52.240;16.826;2022-12-18T01:56:11;-2.90;99.90
38798;SHT11;24546;52.240;16.826;2022-12-18T02:01:12;-2.90;99.90
38798;SHT11;24546;52.240;16.826;2022-12-18T02:11:41;-2.90;99.90
38798;SHT11;24546;52.240;16.826;2022-12-18T02:22:30;-2.90;99.90
38798;SHT11;24546;52.240;16.826;2022-12-18T02:27:38;-2.90;99.90
38798;SHT11;24546;52.240;16.826;2022-12-18T02:32:42;-2.80;99.90
38798;SHT11;24546;52.240;16.826;2022-12-18T02:37:45;-2.80;99.90
38798;SHT11;24546;52.240;16.826;2022-12-18T02:42:47;-2.90;99.90
38798;SHT11;24546;52.240;16.826;2022-12-18T02:47:51;-2.90;99.90
38798;SHT11;24546;52.240;16.826;2022-12-18T02:53:15;-3.10;99.90
38798;SHT11;24546;52.240;16.826;2022-12-18T03:03:46;-3.00;99.90
38798;SHT11;24546;52.240;16.826;2022-12-18T03:08:52;-3.00;99.90
38798;SHT11;24546;52.240;16.826;2022-12-18T03:13:58;-2.90;99.90
38798;SHT11;24546;52.240;16.826;2022-12-18T03:19:08;-3.00;99.90
38798;SHT11;24546;52.240;16.826;2022-12-18T03:24:11;-3.00;99.90
38798;SHT11;24546;52.240;16.826;2022-12-18T03:29:17;-3.10;99.90
38798;SHT11;24546;52.240;16.826;2022-12-18T03:34:24;-3.10;99.90
38798;SHT11;24546;52.240;16.826;2022-12-18T03:39:28;-3.00;99.90
38798;SHT11;24546;52.240;16.826;2022-12-18T03:44:36;-3.00;99.90
38798;SHT11;24546;52.240;16.826;2022-12-18T03:50:02;-2.90;99.90
38798;SHT11;24546;52.240;16.826;2022-12-18T03:55:09;-3.00;99.90
38798;SHT11;24546;52.240;16.826;2022-12-18T04:00:14;-3.20;99.90
38798;SHT11;24546;52.240;16.826;2022-12-18T04:05:27;-3.20;99.90
38798;SHT11;24546;52.240;16.826;2022-12-18T04:10:29;-3.30;99.90
38798;SHT11;24546;52.240;16.826;2022-12-18T04:15:34;-3.30;99.90
38798;SHT11;24546;52.240;16.826;2022-12-18T04:20:37;-3.40;99.90
38798;SHT11;24546;52.240;16.826;2022-12-18T04:25:38;-3.30;99.90
38798;SHT11;24546;52.240;16.826;2022-12-18T04:30:42;-3.30;99.90
38798;SHT11;24546;52.240;16.826;2022-12-18T04:35:44;-3.20;99.90
38798;SHT11;24546;52.240;16.826;2022-12-18T04:40:44;-3.10;99.90
38798;SHT11;24546;52.240;16.826;2022-12-18T04:46:04;-3.20;99.90
38798;SHT11;24546;52.240;16.826;2022-12-18T04:51:05;-3.20;99.90
38798;SHT11;24546;52.240;16.826;2022-12-18T04:56:10;-3.20;99.90
38798;SHT11;24546;52.240;16.826;2022-12-18T05:01:13;-3.30;99.90
38798;SHT11;24546;52.240;16.826;2022-12-18T05:06:14;-3.20;99.90
38798;SHT11;24546;52.240;16.826;2022-12-18T05:11:15;-3.30;99.90
38798;SHT11;24546;52.240;16.826;2022-12-18T05:16:16;-3.20;99.90
38798;SHT11;24546;52.240;16.826;2022-12-18T05:21:17;-3.20;99.90
38798;SHT11;24546;52.240;16.826;2022-12-18T05:26:18;-3.30;99.90
38798;SHT11;24546;52.240;16.826;2022-12-18T05:31:19;-3.30;99.90
38798;SHT11;24546;52.240;16.826;2022-12-18T05:36:19;-3.20;99.90
38798;SHT11;24546;52.240;16.826;2022-12-18T05:41:20;-3.20;99.90
38798;SHT11;24546;52.240;16.826;2022-12-18T05:46:21;-3.10;99.90
38798;SHT11;24546;52.240;16.826;2022-12-18T05:51:22;-3.20;99.90
38798;SHT11;24546;52.240;16.826;2022-12-18T05:56:23;-3.20;99.90
38798;SHT11;24546;52.240;16.826;2022-12-18T06:01:26;-3.40;99.90
38798;SHT11;24546;52.240;16.826;2022-12-18T06:06:27;-3.50;99.90
38798;SHT11;24546;52.240;16.826;2022-12-18T06:11:29;-3.50;99.90
38798;SHT11;24546;52.240;16.826;2022-12-18T06:16:31;-3.40;99.90
38798;SHT11;24546;52.240;16.826;2022-12-18T06:21:32;-3.30;99.90
38798;SHT11;24546;52.240;16.826;2022-12-18T06:26:33;-3.10;99.90
38798;SHT11;24546;52.240;16.826;2022-12-18T06:31:34;-3.20;99.90
38798;SHT11;24546;52.240;16.826;2022-12-18T06:36:35;-3.40;99.90
38798;SHT11;24546;52.240;16.826;2022-12-18T06:41:36;-3.30;99.90
38798;SHT11;24546;52.240;16.826;2022-12-18T06:46:37;-3.20;99.90
38798;SHT11;24546;52.240;16.826;2022-12-18T06:51:38;-3.30;99.90
38798;SHT11;24546;52.240;16.826;2022-12-18T06:56:39;-3.40;99.90
38798;SHT11;24546;52.240;16.826;2022-12-18T07:01:40;-3.30;99.90
38798;SHT11;24546;52.240;16.826;2022-12-18T07:06:41;-3.30;99.90
38798;SHT11;24546;52.240;16.826;2022-12-18T07:11:42;-3.40;99.90
38798;SHT11;24546;52.240;16.826;2022-12-18T07:16:43;-3.40;99.90
38798;SHT11;24546;52.240;16.826;2022-12-18T07:21:44;-3.10;99.90
38798;SHT11;24546;52.240;16.826;2022-12-18T07:26:48;-3.20;99.90
38798;SHT11;24546;52.240;16.826;2022-12-18T07:31:49;-3.10;99.90
38798;SHT11;24546;52.240;16.826;2022-12-18T07:36:50;-3.00;99.90
38798;SHT11;24546;52.240;16.826;2022-12-18T07:41:50;-2.90;99.90
38798;SHT11;24546;52.240;16.826;2022-12-18T07:47:10;-2.80;99.90
38798;SHT11;24546;52.240;16.826;2022-12-18T07:52:11;-2.80;99.90
38798;SHT11;24546;52.240;16.826;2022-12-18T07:57:12;-2.90;99.90
38798;SHT11;24546;52.240;16.826;2022-12-18T08:02:15;-2.90;99.90
38798;SHT11;24546;52.240;16.826;2022-12-18T08:07:16;-2.80;99.90
38798;SHT11;24546;52.240;16.826;2022-12-18T08:12:16;-2.60;99.90
38798;SHT11;24546;52.240;16.826;2022-12-18T08:17:18;-2.50;99.90
38798;SHT11;24546;52.240;16.826;2022-12-18T08:22:19;-2.60;99.90
38798;SHT11;24546;52.240;16.826;2022-12-18T08:27:20;-2.60;99.90
38798;SHT11;24546;52.240;16.826;2022-12-18T08:32:21;-2.40;99.90
38798;SHT11;24546;52.240;16.826;2022-12-18T08:37:21;-2.70;99.90
38798;SHT11;24546;52.240;16.826;2022-12-18T08:42:22;-2.60;99.90
38798;SHT11;24546;52.240;16.826;2022-12-18T08:47:41;-2.60;99.90
38798;SHT11;24546;52.240;16.826;2022-12-18T08:52:42;-2.40;99.90
38798;SHT11;24546;52.240;16.826;2022-12-18T08:57:43;-2.30;99.90
38798;SHT11;24546;52.240;16.826;2022-12-18T09:02:44;-2.10;99.90
38798;SHT11;24546;52.240;16.826;2022-12-18T09:07:45;-2.10;99.90
38798;SHT11;24546;52.240;16.826;2022-12-18T09:12:45;-2.20;99.90
38798;SHT11;24546;52.240;16.826;2022-12-18T09:17:46;-2.30;99.90
38798;SHT11;24546;52.240;16.826;2022-12-18T09:22:48;-2.20;99.90
38798;SHT11;24546;52.240;16.826;2022-12-18T09:27:49;-2.10;99.90
38798;SHT11;24546;52.240;16.826;2022-12-18T09:32:50;-2.10;99.90
38798;SHT11;24546;52.240;16.826;2022-12-18T09:37:50;-2.10;99.90
38798;SHT11;24546;52.240;16.826;2022-12-18T09:42:55;-1.90;99.90
38798;SHT11;24546;52.240;16.826;2022-12-18T09:48:01;-1.90;99.90
38798;SHT11;24546;52.240;16.826;2022-12-18T09:53:06;-1.80;99.90
38798;SHT11;24546;52.240;16.826;2022-12-18T09:58:15;-1.90;99.90
38798;SHT11;24546;52.240;16.826;2022-12-18T10:03:17;-1.60;99.90
38798;SHT11;24546;52.240;16.826;2022-12-18T10:08:49;-1.60;99.90
38798;SHT11;24546;52.240;16.826;2022-12-18T10:19:39;-1.40;99.90
38798;SHT11;24546;52.240;16.826;2022-12-18T10:25:14;-1.20;99.90
38798;SHT11;24546;52.240;16.826;2022-12-18T10:30:18;-1.10;99.90
38798;SHT11;24546;52.240;16.826;2022-12-18T10:35:25;-1.00;99.90
38798;SHT11;24546;52.240;16.826;2022-12-18T10:40:27;-1.10;99.90
38798;SHT11;24546;52.240;16.826;2022-12-18T10:45:28;-1.60;99.90
38798;SHT11;24546;52.240;16.826;2022-12-18T10:50:31;-1.50;99.90
38798;SHT11;24546;52.240;16.826;2022-12-18T10:55:35;-1.30;99.90
38798;SHT11;24546;52.240;16.826;2022-12-18T11:00:38;-1.20;99.90
38798;SHT11;24546;52.240;16.826;2022-12-18T11:05:39;-1.10;99.90
38798;SHT11;24546;52.240;16.826;2022-12-18T11:10:40;-1.30;99.90
38798;SHT11;24546;52.240;16.826;2022-12-18T11:15:47;-1.40;99.90
38798;SHT11;24546;52.240;16.826;2022-12-18T11:20:57;-1.20;99.90
38798;SHT11;24546;52.240;16.826;2022-12-18T11:26:01;-0.90;99.90
38798;SHT11;24546;52.240;16.826;2022-12-18T11:31:17;-0.90;99.90
38798;SHT11;24546;52.240;16.826;2022-12-18T11:36:19;-0.90;99.90
38798;SHT11;24546;52.240;16.826;2022-12-18T11:41:34;-0.60;99.90
38798;SHT11;24546;52.240;16.826;2022-12-18T11:52:26;-0.90;99.90
38798;SHT11;24546;52.240;16.826;2022-12-18T11:57:39;-1.40;99.90
38798;SHT11;24546;52.240;16.826;2022-12-18T12:09:20;-1.10;99.90
38798;SHT11;24546;52.240;16.826;2022-12-18T12:40:33;-0.70;99.90
38798;SHT11;24546;52.240;16.826;2022-12-18T12:45:57;-0.80;99.90
38798;SHT11;24546;52.240;16.826;2022-12-18T12:51:06;-0.90;99.90
38798;SHT11;24546;52.240;16.826;2022-12-18T12:56:11;-1.10;99.90
38798;SHT11;24546;52.240;16.826;2022-12-18T13:06:28;-1.00;99.90
38798;SHT11;24546;52.240;16.826;2022-12-18T13:11:39;-1.20;99.90
38798;SHT11;24546;52.240;16.826;2022-12-18T13:17:27;-1.40;99.90
38798;SHT11;24546;52.240;16.826;2022-12-18T13:22:38;-1.70;99.90
38798;SHT11;24546;52.240;16.826;2022-12-18T13:32:46;-1.40;99.90
38798;SHT11;24546;52.240;16.826;2022-12-18T13:37:54;-1.80;99.90
38798;SHT11;24546;52.240;16.826;2022-12-18T13:42:55;-2.00;99.90
38798;SHT11;24546;52.240;16.826;2022-12-18T13:48:25;-2.00;99.90
38798;SHT11;24546;52.240;16.826;2022-12-18T13:53:33;-2.10;99.90
38798;SHT11;24546;52.240;16.826;2022-12-18T13:58:35;-2.10;99.90
38798;SHT11;24546;52.240;16.826;2022-12-18T14:03:35;-2.00;99.90
38798;SHT11;24546;52.240;16.826;2022-12-18T14:08:41;-2.10;99.90
38798;SHT11;24546;52.240;16.826;2022-12-18T14:13:43;-2.00;99.90
38798;SHT11;24546;52.240;16.826;2022-12-18T14:23:47;-2.00;99.90
38798;SHT11;24546;52.240;16.826;2022-12-18T14:28:48;-2.00;99.90
38798;SHT11;24546;52.240;16.826;2022-12-18T14:33:50;-2.30;99.90
38798;SHT11;24546;52.240;16.826;2022-12-18T14:38:54;-2.30;99.90
38798;SHT11;24546;52.240;16.826;2022-12-18T14:43:55;-2.20;99.90
38798;SHT11;24546;52.240;16.826;2022-12-18T14:49:18;-2.10;99.90
38798;SHT11;24546;52.240;16.826;2022-12-18T14:54:21;-1.90;99.90
38798;SHT11;24546;52.240;16.826;2022-12-18T14:59:24;-1.80;99.90
38798;SHT11;24546;52.240;16.826;2022-12-18T15:04:32;-1.90;99.90
38798;SHT11;24546;52.240;16.826;2022-12-18T15:09:34;-2.00;99.90
38798;SHT11;24546;52.240;16.826;2022-12-18T15:19:39;-2.40;99.90
38798;SHT11;24546;52.240;16.826;2022-12-18T15:24:41;-2.30;99.90
38798;SHT11;24546;52.240;16.826;2022-12-18T15:29:41;-2.30;99.90
38798;SHT11;24546;52.240;16.826;2022-12-18T15:34:42;-2.30;99.90
38798;SHT11;24546;52.240;16.826;2022-12-18T15:39:43;-2.70;99.90
38798;SHT11;24546;52.240;16.826;2022-12-18T15:44:44;-2.60;99.90
38798;SHT11;24546;52.240;16.826;2022-12-18T15:49:45;-2.80;99.90
38798;SHT11;24546;52.240;16.826;2022-12-18T15:54:46;-2.70;99.90
38798;SHT11;24546;52.240;16.826;2022-12-18T16:00:06;-2.50;99.90
38798;SHT11;24546;52.240;16.826;2022-12-18T16:05:15;-2.60;99.90
38798;SHT11;24546;52.240;16.826;2022-12-18T16:10:17;-2.90;99.90
38798;SHT11;24546;52.240;16.826;2022-12-18T16:15:18;-3.10;99.90
38798;SHT11;24546;52.240;16.826;2022-12-18T16:20:21;-3.30;99.90
38798;SHT11;24546;52.240;16.826;2022-12-18T16:25:27;-3.40;99.90
38798;SHT11;24546;52.240;16.826;2022-12-18T16:30:30;-3.40;99.90
38798;SHT11;24546;52.240;16.826;2022-12-18T16:35:31;-3.30;99.90
38798;SHT11;24546;52.240;16.826;2022-12-18T16:40:33;-3.10;99.90
38798;SHT11;24546;52.240;16.826;2022-12-18T16:45:33;-2.90;99.90
38798;SHT11;24546;52.240;16.826;2022-12-18T16:50:37;-2.80;99.90
38798;SHT11;24546;52.240;16.826;2022-12-18T16:55:37;-3.20;99.90
38798;SHT11;24546;52.240;16.826;2022-12-18T17:00:38;-3.40;99.90
38798;SHT11;24546;52.240;16.826;2022-12-18T17:05:40;-3.00;99.90
38798;SHT11;24546;52.240;16.826;2022-12-18T17:10:41;-2.90;99.90
38798;SHT11;24546;52.240;16.826;2022-12-18T17:15:42;-2.90;99.90
38798;SHT11;24546;52.240;16.826;2022-12-18T17:20:42;-3.30;99.90
38798;SHT11;24546;52.240;16.826;2022-12-18T17:25:43;-3.00;99.90
38798;SHT11;24546;52.240;16.826;2022-12-18T17:30:44;-2.90;99.90
38798;SHT11;24546;52.240;16.826;2022-12-18T17:35:45;-2.90;99.90
38798;SHT11;24546;52.240;16.826;2022-12-18T17:40:46;-2.90;99.90
38798;SHT11;24546;52.240;16.826;2022-12-18T17:45:46;-3.00;99.90
38798;SHT11;24546;52.240;16.826;2022-12-18T17:50:47;-3.20;99.90
38798;SHT11;24546;52.240;16.826;2022-12-18T17:55:55;-3.50;99.90
38798;SHT11;24546;52.240;16.826;2022-12-18T18:00:56;-3.20;99.90
38798;SHT11;24546;52.240;16.826;2022-12-18T18:05:58;-3.20;99.90
38798;SHT11;24546;52.240;16.826;2022-12-18T18:11:06;-3.20;99.90
38798;SHT11;24546;52.240;16.826;2022-12-18T18:21:29;-3.50;99.90
38798;SHT11;24546;52.240;16.826;2022-12-18T18:26:31;-3.70;99.90
38798;SHT11;24546;52.240;16.826;2022-12-18T18:31:32;-3.90;99.90
38798;SHT11;24546;52.240;16.826;2022-12-18T18:36:34;-3.70;99.90
38798;SHT11;24546;52.240;16.826;2022-12-18T18:41:35;-4.00;99.90
38798;SHT11;24546;52.240;16.826;2022-12-18T18:46:35;-3.90;99.90
38798;SHT11;24546;52.240;16.826;2022-12-18T18:51:36;-3.80;99.90
38798;SHT11;24546;52.240;16.826;2022-12-18T18:56:37;-4.00;99.90
38798;SHT11;24546;52.240;16.826;2022-12-18T19:01:38;-3.90;99.90
38798;SHT11;24546;52.240;16.826;2022-12-18T19:06:39;-4.00;99.90
38798;SHT11;24546;52.240;16.826;2022-12-18T19:11:39;-4.10;99.90
38798;SHT11;24546;52.240;16.826;2022-12-18T19:16:59;-3.80;99.90
38798;SHT11;24546;52.240;16.826;2022-12-18T19:22:00;-3.50;99.90
38798;SHT11;24546;52.240;16.826;2022-12-18T19:27:01;-3.80;99.90
38798;SHT11;24546;52.240;16.826;2022-12-18T19:32:02;-3.80;99.90
38798;SHT11;24546;52.240;16.826;2022-12-18T19:37:02;-3.90;99.90
38798;SHT11;24546;52.240;16.826;2022-12-18T19:42:06;-3.60;99.90
38798;SHT11;24546;52.240;16.826;2022-12-18T19:47:07;-3.80;99.90
38798;SHT11;24546;52.240;16.826;2022-12-18T19:52:07;-3.90;99.90
38798;SHT11;24546;52.240;16.826;2022-12-18T19:57:08;-3.70;99.90
38798;SHT11;24546;52.240;16.826;2022-12-18T20:02:14;-3.80;99.90
38798;SHT11;24546;52.240;16.826;2022-12-18T20:07:15;-3.90;99.90
38798;SHT11;24546;52.240;16.826;2022-12-18T20:12:15;-3.70;99.90
38798;SHT11;24546;52.240;16.826;2022-12-18T20:17:16;-3.60;99.90
38798;SHT11;24546;52.240;16.826;2022-12-18T20:22:17;-3.50;99.90
38798;SHT11;24546;52.240;16.826;2022-12-18T20:27:18;-3.50;99.90
38798;SHT11;24546;52.240;16.826;2022-12-18T20:32:19;-3.50;99.90
38798;SHT11;24546;52.240;16.826;2022-12-18T20:37:20;-3.50;99.90
38798;SHT11;24546;52.240;16.826;2022-12-18T20:42:21;-3.40;99.90
38798;SHT11;24546;52.240;16.826;2022-12-18T20:47:22;-3.40;99.90
38798;SHT11;24546;52.240;16.826;2022-12-18T20:52:22;-3.40;99.90
38798;SHT11;24546;52.240;16.826;2022-12-18T20:57:23;-3.30;99.90
38798;SHT11;24546;52.240;16.826;2022-12-18T21:02:24;-3.30;99.90
38798;SHT11;24546;52.240;16.826;2022-12-18T21:07:25;-3.30;99.90
38798;SHT11;24546;52.240;16.826;2022-12-18T21:12:27;-3.30;99.90
38798;SHT11;24546;52.240;16.826;2022-12-18T21:17:30;-3.40;99.90
38798;SHT11;24546;52.240;16.826;2022-12-18T21:22:33;-3.50;99.90
38798;SHT11;24546;52.240;16.826;2022-12-18T21:27:35;-3.50;99.90
38798;SHT11;24546;52.240;16.826;2022-12-18T21:32:36;-3.60;99.90
38798;SHT11;24546;52.240;16.826;2022-12-18T21:37:37;-3.60;99.90
38798;SHT11;24546;52.240;16.826;2022-12-18T21:42:38;-3.70;99.90
38798;SHT11;24546;52.240;16.826;2022-12-18T21:47:57;-3.70;99.90
38798;SHT11;24546;52.240;16.826;2022-12-18T21:52:58;-3.80;99.90
38798;SHT11;24546;52.240;16.826;2022-12-18T21:57:59;-3.80;99.90
38798;SHT11;24546;52.240;16.826;2022-12-18T22:03:00;-3.90;99.90
38798;SHT11;24546;52.240;16.826;2022-12-18T22:08:00;-4.00;99.90
38798;SHT11;24546;52.240;16.826;2022-12-18T22:13:01;-4.00;99.90
38798;SHT11;24546;52.240;16.826;2022-12-18T22:18:02;-4.10;99.90
38798;SHT11;24546;52.240;16.826;2022-12-18T22:23:03;-4.10;99.90
38798;SHT11;24546;52.240;16.826;2022-12-18T22:28:04;-4.20;99.90
38798;SHT11;24546;52.240;16.826;2022-12-18T22:33:24;-4.20;99.90
38798;SHT11;24546;52.240;16.826;2022-12-18T22:38:24;-4.20;99.90
38798;SHT11;24546;52.240;16.826;2022-12-18T22:43:26;-4.30;99.90
38798;SHT11;24546;52.240;16.826;2022-12-18T22:48:26;-4.40;99.90
38798;SHT11;24546;52.240;16.826;2022-12-18T22:53:27;-4.40;99.90
38798;SHT11;24546;52.240;16.826;2022-12-18T22:58:28;-4.40;99.90
38798;SHT11;24546;52.240;16.826;2022-12-18T23:03:31;-4.70;99.90
38798;SHT11;24546;52.240;16.826;2022-12-18T23:08:32;-4.70;99.90
38798;SHT11;24546;52.240;16.826;2022-12-18T23:13:34;-4.60;99.90
38798;SHT11;24546;52.240;16.826;2022-12-18T23:18:35;-4.60;99.90
38798;SHT11;24546;52.240;16.826;2022-12-18T23:23:36;-4.50;99.90
38798;SHT11;24546;52.240;16.826;2022-12-18T23:28:38;-4.60;99.90
38798;SHT11;24546;52.240;16.826;2022-12-18T23:33:39;-4.60;99.90
38798;SHT11;24546;52.240;16.826;2022-12-18T23:38:40;-4.50;99.90
38798;SHT11;24546;52.240;16.826;2022-12-18T23:43:41;-4.40;99.90
38798;SHT11;24546;52.240;16.826;2022-12-18T23:48:42;-4.40;99.90
38798;SHT11;24546;52.240;16.826;2022-12-18T23:53:44;-4.40;99.90
38798;SHT11;24546;52.240;16.826;2022-12-18T23:58:45;-4.50;99.90
